sensor_id;sensor_type;location;lat;lon;timestamp;pressure;altitude;pressure_sealevel;temperature;humidity
8280;BME280;8335;42.646;23.380;2023-04-06T00:00:47;141664.72;;;0.15;88.14
8280;BME280;8335;42.646;23.380;2023-04-06T00:03:14;141652.38;;;0.10;88.27
8280;BME280;8335;42.646;23.380;2023-04-06T00:05:41;141646.25;;;0.08;88.13
8280;BME280;8335;42.646;23.380;2023-04-06T00:08:08;141653.59;;;0.11;88.37
8280;BME280;8335;42.646;23.380;2023-04-06T00:10:36;141674.53;;;0.19;87.89
8280;BME280;8335;42.646;23.380;2023-04-06T00:13:02;141673.31;;;0.19;88.09
8280;BME280;8335;42.646;23.380;2023-04-06T00:15:31;141677.00;;;0.20;87.88
8280;BME280;8335;42.646;23.380;2023-04-06T00:17:58;141662.22;;;0.14;88.10
8280;BME280;8335;42.646;23.380;2023-04-06T00:20:24;141669.63;;;0.17;87.88
8280;BME280;8335;42.646;23.380;2023-04-06T00:22:51;141656.06;;;0.12;88.03
8280;BME280;8335;42.646;23.380;2023-04-06T00:25:19;141653.59;;;0.11;88.09
8280;BME280;8335;42.646;23.380;2023-04-06T00:27:46;141657.28;;;0.12;88.32
8280;BME280;8335;42.646;23.380;2023-04-06T00:30:13;141649.94;;;0.09;88.08
8280;BME280;8335;42.646;23.380;2023-04-06T00:32:41;141657.28;;;0.12;87.71
8280;BME280;8335;42.646;23.380;2023-04-06T00:35:08;141653.59;;;0.11;87.95
8280;BME280;8335;42.646;23.380;2023-04-06T00:37:35;141646.25;;;0.08;88.65
8280;BME280;8335;42.646;23.380;2023-04-06T00:40:02;141627.75;;;0.00;88.32
8280;BME280;8335;42.646;23.380;2023-04-06T00:42:29;141644.97;;;0.07;88.56
8280;BME280;8335;42.646;23.380;2023-04-06T00:44:58;141632.69;;;0.02;89.16
8280;BME280;8335;42.646;23.380;2023-04-06T00:47:25;141629.00;;;0.01;88.95
8280;BME280;8335;42.646;23.380;2023-04-06T00:49:54;141627.75;;;0.00;89.23
8280;BME280;8335;42.646;23.380;2023-04-06T00:52:21;141633.91;;;0.03;89.44
8280;BME280;8335;42.646;23.380;2023-04-06T00:54:48;141637.59;;;0.04;88.74
8280;BME280;8335;42.646;23.380;2023-04-06T00:57:15;141632.69;;;0.02;89.37
8280;BME280;8335;42.646;23.380;2023-04-06T00:59:43;141646.25;;;0.08;88.72
8280;BME280;8335;42.646;23.380;2023-04-06T01:02:10;141642.50;;;0.06;88.91
8280;BME280;8335;42.646;23.380;2023-04-06T01:04:38;141646.25;;;0.08;88.60
8280;BME280;8335;42.646;23.380;2023-04-06T01:07:06;141649.94;;;0.09;88.86
8280;BME280;8335;42.646;23.380;2023-04-06T01:09:33;141659.75;;;0.13;88.61
8280;BME280;8335;42.646;23.380;2023-04-06T01:12:00;141647.47;;;0.08;89.22
8280;BME280;8335;42.646;23.380;2023-04-06T01:14:27;141638.81;;;0.05;89.38
8280;BME280;8335;42.646;23.380;2023-04-06T01:16:58;141482.41;;;-0.60;89.33
8280;BME280;8335;42.646;23.380;2023-04-06T01:19:25;141631.44;;;0.02;89.11
8280;BME280;8335;42.646;23.380;2023-04-06T01:21:52;141614.19;;;-0.06;90.05
8280;BME280;8335;42.646;23.380;2023-04-06T01:24:21;141593.28;;;-0.14;89.68
8280;BME280;8335;42.646;23.380;2023-04-06T01:26:48;141630.22;;;0.01;89.66
8280;BME280;8335;42.646;23.380;2023-04-06T01:29:15;141629.00;;;0.01;89.92
8280;BME280;8335;42.646;23.380;2023-04-06T01:31:42;141624.03;;;-0.02;89.85
8280;BME280;8335;42.646;23.380;2023-04-06T01:34:08;141622.81;;;-0.02;89.56
8280;BME280;8335;42.646;23.380;2023-04-06T01:36:35;141629.00;;;0.01;89.41
8280;BME280;8335;42.646;23.380;2023-04-06T01:39:02;141629.00;;;0.01;90.09
8280;BME280;8335;42.646;23.380;2023-04-06T01:41:30;141632.69;;;0.02;90.07
8280;BME280;8335;42.646;23.380;2023-04-06T01:43:57;141629.00;;;0.01;89.78
8280;BME280;8335;42.646;23.380;2023-04-06T01:46:24;141635.13;;;0.03;90.01
8280;BME280;8335;42.646;23.380;2023-04-06T01:48:51;141633.91;;;0.03;90.35
8280;BME280;8335;42.646;23.380;2023-04-06T01:51:18;141633.91;;;0.03;90.44
8280;BME280;8335;42.646;23.380;2023-04-06T01:53:45;141642.50;;;0.06;90.38
8280;BME280;8335;42.646;23.380;2023-04-06T01:56:13;141665.94;;;0.16;89.88
8280;BME280;8335;42.646;23.380;2023-04-06T01:58:42;141658.53;;;0.13;90.01
8280;BME280;8335;42.646;23.380;2023-04-06T02:01:08;141653.59;;;0.11;89.85
8280;BME280;8335;42.646;23.380;2023-04-06T02:03:35;141651.16;;;0.10;90.01
8280;BME280;8335;42.646;23.380;2023-04-06T02:06:02;141672.09;;;0.18;89.82
8280;BME280;8335;42.646;23.380;2023-04-06T02:08:30;141679.47;;;0.21;89.29
8280;BME280;8335;42.646;23.380;2023-04-06T02:10:57;141688.09;;;0.25;89.10
8280;BME280;8335;42.646;23.380;2023-04-06T02:13:24;141700.44;;;0.30;89.58
8280;BME280;8335;42.646;23.380;2023-04-06T02:15:52;141710.28;;;0.34;88.80
8280;BME280;8335;42.646;23.380;2023-04-06T02:18:19;141705.34;;;0.32;89.36
8280;BME280;8335;42.646;23.380;2023-04-06T02:20:46;141720.16;;;0.38;89.44
8280;BME280;8335;42.646;23.380;2023-04-06T02:23:12;141748.47;;;0.50;88.86
8280;BME280;8335;42.646;23.380;2023-04-06T02:25:40;141757.13;;;0.53;88.17
8280;BME280;8335;42.646;23.380;2023-04-06T02:28:07;141753.44;;;0.52;88.42
8280;BME280;8335;42.646;23.380;2023-04-06T02:30:34;141760.81;;;0.55;87.86
8280;BME280;8335;42.646;23.380;2023-04-06T02:33:02;141762.03;;;0.55;87.81
8280;BME280;8335;42.646;23.380;2023-04-06T02:35:30;141612.97;;;-0.06;87.63
8280;BME280;8335;42.646;23.380;2023-04-06T02:37:57;141764.50;;;0.57;87.85
8280;BME280;8335;42.646;23.380;2023-04-06T02:40:24;141764.50;;;0.57;87.90
8280;BME280;8335;42.646;23.380;2023-04-06T02:42:51;141775.59;;;0.61;87.57
8280;BME280;8335;42.646;23.380;2023-04-06T02:45:18;141782.97;;;0.64;87.32
8280;BME280;8335;42.646;23.380;2023-04-06T02:47:45;141780.50;;;0.63;87.12
8280;BME280;8335;42.646;23.380;2023-04-06T02:50:14;141771.91;;;0.60;87.32
8280;BME280;8335;42.646;23.380;2023-04-06T02:52:41;141789.16;;;0.67;87.52
8280;BME280;8335;42.646;23.380;2023-04-06T02:55:08;141765.72;;;0.57;87.46
8280;BME280;8335;42.646;23.380;2023-04-06T02:57:35;141775.59;;;0.61;87.51
8280;BME280;8335;42.646;23.380;2023-04-06T03:00:03;141781.75;;;0.64;87.35
8280;BME280;8335;42.646;23.380;2023-04-06T03:02:29;141787.94;;;0.66;87.13
8280;BME280;8335;42.646;23.380;2023-04-06T03:04:56;141797.75;;;0.70;87.40
8280;BME280;8335;42.646;23.380;2023-04-06T03:07:25;141789.16;;;0.67;87.47
8280;BME280;8335;42.646;23.380;2023-04-06T03:09:51;141790.38;;;0.67;87.47
8280;BME280;8335;42.646;23.380;2023-04-06T03:12:18;141799.00;;;0.71;87.61
8280;BME280;8335;42.646;23.380;2023-04-06T03:14:45;141823.69;;;0.81;86.61
8280;BME280;8335;42.646;23.380;2023-04-06T03:17:12;141806.41;;;0.74;86.85
8280;BME280;8335;42.646;23.380;2023-04-06T03:19:39;141786.69;;;0.66;87.25
8280;BME280;8335;42.646;23.380;2023-04-06T03:22:05;141799.00;;;0.71;86.73
8280;BME280;8335;42.646;23.380;2023-04-06T03:24:34;141791.63;;;0.68;87.64
8280;BME280;8335;42.646;23.380;2023-04-06T03:27:00;141791.63;;;0.68;87.43
8280;BME280;8335;42.646;23.380;2023-04-06T03:29:27;141774.38;;;0.61;87.52
8280;BME280;8335;42.646;23.380;2023-04-06T03:31:55;141767.00;;;0.58;86.79
8280;BME280;8335;42.646;23.380;2023-04-06T03:34:22;141762.03;;;0.55;88.22
8280;BME280;8335;42.646;23.380;2023-04-06T03:36:48;141744.78;;;0.48;88.15
8280;BME280;8335;42.646;23.380;2023-04-06T03:39:15;141753.44;;;0.52;87.57
8280;BME280;8335;42.646;23.380;2023-04-06T03:41:44;141741.09;;;0.47;88.12
8280;BME280;8335;42.646;23.380;2023-04-06T03:44:11;141754.66;;;0.52;88.18
8280;BME280;8335;42.646;23.380;2023-04-06T03:46:38;141747.22;;;0.49;88.73
8280;BME280;8335;42.646;23.380;2023-04-06T03:49:05;141754.66;;;0.52;88.10
8280;BME280;8335;42.646;23.380;2023-04-06T03:51:32;141747.22;;;0.49;88.06
8280;BME280;8335;42.646;23.380;2023-04-06T03:53:59;141767.00;;;0.58;87.85
8280;BME280;8335;42.646;23.380;2023-04-06T03:56:26;141762.03;;;0.55;87.85
8280;BME280;8335;42.646;23.380;2023-04-06T03:58:54;141759.56;;;0.54;87.92
8280;BME280;8335;42.646;23.380;2023-04-06T04:01:21;141779.28;;;0.63;87.77
8280;BME280;8335;42.646;23.380;2023-04-06T04:03:48;141789.16;;;0.67;86.77
8280;BME280;8335;42.646;23.380;2023-04-06T04:06:15;141797.75;;;0.70;86.97
8280;BME280;8335;42.646;23.380;2023-04-06T04:08:42;141800.22;;;0.71;86.89
8280;BME280;8335;42.646;23.380;2023-04-06T04:11:09;141789.16;;;0.67;86.84
8280;BME280;8335;42.646;23.380;2023-04-06T04:13:35;141787.94;;;0.66;87.30
8280;BME280;8335;42.646;23.380;2023-04-06T04:16:04;141799.00;;;0.71;86.45
8280;BME280;8335;42.646;23.380;2023-04-06T04:18:31;141792.84;;;0.68;87.48
8280;BME280;8335;42.646;23.380;2023-04-06T04:20:58;141799.00;;;0.71;86.83
8280;BME280;8335;42.646;23.380;2023-04-06T04:23:24;141795.31;;;0.69;87.43
8280;BME280;8335;42.646;23.380;2023-04-06T04:25:51;141797.75;;;0.70;86.65
8280;BME280;8335;42.646;23.380;2023-04-06T04:28:18;141808.88;;;0.75;86.39
8280;BME280;8335;42.646;23.380;2023-04-06T04:30:45;141820.00;;;0.79;86.15
8280;BME280;8335;42.646;23.380;2023-04-06T04:33:14;141838.47;;;0.87;85.99
8280;BME280;8335;42.646;23.380;2023-04-06T04:35:40;141858.19;;;0.95;85.62
8280;BME280;8335;42.646;23.380;2023-04-06T04:38:07;141861.88;;;0.97;86.16
8280;BME280;8335;42.646;23.380;2023-04-06T04:40:34;141855.75;;;0.94;85.61
8280;BME280;8335;42.646;23.380;2023-04-06T04:43:01;141860.66;;;0.96;85.63
8280;BME280;8335;42.646;23.380;2023-04-06T04:45:28;141875.47;;;1.02;85.21
8280;BME280;8335;42.646;23.380;2023-04-06T04:47:55;141893.94;;;1.10;85.95
8280;BME280;8335;42.646;23.380;2023-04-06T04:50:23;141924.78;;;1.23;85.38
8280;BME280;8335;42.646;23.380;2023-04-06T04:52:50;141946.97;;;1.32;84.46
8280;BME280;8335;42.646;23.380;2023-04-06T04:55:17;141946.97;;;1.32;83.88
8280;BME280;8335;42.646;23.380;2023-04-06T04:57:44;141961.78;;;1.38;84.35
8280;BME280;8335;42.646;23.380;2023-04-06T05:00:12;141948.19;;;1.32;83.50
8280;BME280;8335;42.646;23.380;2023-04-06T05:02:39;141940.81;;;1.29;83.41
8280;BME280;8335;42.646;23.380;2023-04-06T05:05:06;141958.09;;;1.36;83.62
8280;BME280;8335;42.646;23.380;2023-04-06T05:07:34;141971.63;;;1.42;83.30
8280;BME280;8335;42.646;23.380;2023-04-06T05:10:01;142002.47;;;1.55;82.65
8280;BME280;8335;42.646;23.380;2023-04-06T05:12:28;141997.53;;;1.53;83.24
8280;BME280;8335;42.646;23.380;2023-04-06T05:14:55;142011.13;;;1.58;83.31
8280;BME280;8335;42.646;23.380;2023-04-06T05:17:22;142019.72;;;1.62;82.99
8280;BME280;8335;42.646;23.380;2023-04-06T05:19:49;142032.09;;;1.67;82.54
8280;BME280;8335;42.646;23.380;2023-04-06T05:22:16;142034.53;;;1.68;83.33
8280;BME280;8335;42.646;23.380;2023-04-06T05:24:44;142022.19;;;1.63;82.85
8280;BME280;8335;42.646;23.380;2023-04-06T05:27:11;142038.22;;;1.70;82.87
8280;BME280;8335;42.646;23.380;2023-04-06T05:29:38;142060.47;;;1.79;82.77
8280;BME280;8335;42.646;23.380;2023-04-06T05:32:05;142071.56;;;1.83;82.65
8280;BME280;8335;42.646;23.380;2023-04-06T05:34:32;142091.28;;;1.91;82.43
8280;BME280;8335;42.646;23.380;2023-04-06T05:36:59;142099.94;;;1.95;82.36
8280;BME280;8335;42.646;23.380;2023-04-06T05:39:26;142112.31;;;2.00;82.24
8280;BME280;8335;42.646;23.380;2023-04-06T05:41:54;142109.78;;;1.99;82.18
8280;BME280;8335;42.646;23.380;2023-04-06T05:44:21;142140.66;;;2.12;81.80
8280;BME280;8335;42.646;23.380;2023-04-06T05:46:48;142154.25;;;2.17;82.49
8280;BME280;8335;42.646;23.380;2023-04-06T05:49:15;142145.59;;;2.14;82.44
8280;BME280;8335;42.646;23.380;2023-04-06T05:51:42;142154.25;;;2.17;82.63
8280;BME280;8335;42.646;23.380;2023-04-06T05:54:09;142156.72;;;2.18;83.09
8280;BME280;8335;42.646;23.380;2023-04-06T05:56:36;142144.34;;;2.13;83.33
8280;BME280;8335;42.646;23.380;2023-04-06T05:59:05;142162.84;;;2.21;83.43
8280;BME280;8335;42.646;23.380;2023-04-06T06:01:32;142186.34;;;2.31;82.75
8280;BME280;8335;42.646;23.380;2023-04-06T06:04:00;142199.94;;;2.36;82.77
8280;BME280;8335;42.646;23.380;2023-04-06T06:06:28;142196.19;;;2.35;82.71
8280;BME280;8335;42.646;23.380;2023-04-06T06:08:55;142219.69;;;2.44;82.88
8280;BME280;8335;42.646;23.380;2023-04-06T06:11:24;142201.16;;;2.37;83.06
8280;BME280;8335;42.646;23.380;2023-04-06T06:13:51;142208.56;;;2.40;83.13
8280;BME280;8335;42.646;23.380;2023-04-06T06:16:19;142191.28;;;2.33;83.35
8280;BME280;8335;42.646;23.380;2023-04-06T06:18:46;142228.28;;;2.48;82.17
8280;BME280;8335;42.646;23.380;2023-04-06T06:21:13;142218.44;;;2.44;82.31
8280;BME280;8335;42.646;23.380;2023-04-06T06:23:41;142234.50;;;2.51;83.23
8280;BME280;8335;42.646;23.380;2023-04-06T06:26:08;142232.00;;;2.49;83.93
8280;BME280;8335;42.646;23.380;2023-04-06T06:28:36;142244.34;;;2.55;82.38
8280;BME280;8335;42.646;23.380;2023-04-06T06:31:03;142246.81;;;2.56;82.91
8280;BME280;8335;42.646;23.380;2023-04-06T06:33:31;142255.47;;;2.59;83.04
8280;BME280;8335;42.646;23.380;2023-04-06T06:35:58;142281.38;;;2.70;83.53
8280;BME280;8335;42.646;23.380;2023-04-06T06:38:25;142333.25;;;2.91;82.95
8280;BME280;8335;42.646;23.380;2023-04-06T06:40:52;142403.66;;;3.20;82.22
8280;BME280;8335;42.646;23.380;2023-04-06T06:43:19;142532.19;;;3.73;80.89
8280;BME280;8335;42.646;23.380;2023-04-06T06:45:45;142666.94;;;4.29;78.16
8280;BME280;8335;42.646;23.380;2023-04-06T06:48:12;142836.38;;;4.98;76.03
8280;BME280;8335;42.646;23.380;2023-04-06T06:50:41;142983.69;;;5.59;73.54
8280;BME280;8335;42.646;23.380;2023-04-06T06:53:07;143107.53;;;6.10;70.83
8280;BME280;8335;42.646;23.380;2023-04-06T06:55:34;143272.28;;;6.78;68.19
8280;BME280;8335;42.646;23.380;2023-04-06T06:58:01;143320.63;;;6.98;65.91
8280;BME280;8335;42.646;23.380;2023-04-06T07:00:28;143525.22;;;7.82;64.69
8280;BME280;8335;42.646;23.380;2023-04-06T07:02:55;143753.56;;;8.75;60.91
8280;BME280;8335;42.646;23.380;2023-04-06T07:05:22;143985.75;;;9.71;57.15
8280;BME280;8335;42.646;23.380;2023-04-06T07:07:50;144115.03;;;10.24;53.57
8280;BME280;8335;42.646;23.380;2023-04-06T07:10:17;144343.78;;;11.17;51.57
8280;BME280;8335;42.646;23.380;2023-04-06T07:12:44;144483.13;;;11.74;49.32
8280;BME280;8335;42.646;23.380;2023-04-06T07:15:11;144586.47;;;12.17;46.94
8280;BME280;8335;42.646;23.380;2023-04-06T07:17:38;144775.72;;;12.94;45.36
8280;BME280;8335;42.646;23.380;2023-04-06T07:20:07;144833.00;;;13.17;43.51
8280;BME280;8335;42.646;23.380;2023-04-06T07:22:34;145076.06;;;14.17;43.16
8280;BME280;8335;42.646;23.380;2023-04-06T07:25:02;145194.56;;;14.65;40.30
8280;BME280;8335;42.646;23.380;2023-04-06T07:27:29;145139.63;;;14.43;40.12
8280;BME280;8335;42.646;23.380;2023-04-06T07:29:56;145018.72;;;13.93;40.10
8280;BME280;8335;42.646;23.380;2023-04-06T07:32:23;144956.41;;;13.68;40.98
8280;BME280;8335;42.646;23.380;2023-04-06T07:34:50;144931.50;;;13.58;41.00
8280;BME280;8335;42.646;23.380;2023-04-06T07:37:17;145054.88;;;14.08;40.52
8280;BME280;8335;42.646;23.380;2023-04-06T07:39:44;145064.81;;;14.12;39.54
8280;BME280;8335;42.646;23.380;2023-04-06T07:42:13;145044.88;;;14.04;40.28
8280;BME280;8335;42.646;23.380;2023-04-06T07:44:40;145123.44;;;14.36;39.15
8280;BME280;8335;42.646;23.380;2023-04-06T07:47:06;145194.56;;;14.65;38.70
8280;BME280;8335;42.646;23.380;2023-04-06T07:49:33;145230.75;;;14.80;37.79
8280;BME280;8335;42.646;23.380;2023-04-06T07:52:00;145280.63;;;15.00;37.31
8280;BME280;8335;42.646;23.380;2023-04-06T07:54:28;145341.75;;;15.25;36.75
8280;BME280;8335;42.646;23.380;2023-04-06T07:56:55;145197.06;;;14.66;37.24
8280;BME280;8335;42.646;23.380;2023-04-06T07:59:23;145124.69;;;14.37;38.05
8280;BME280;8335;42.646;23.380;2023-04-06T08:01:50;145066.06;;;14.13;38.29
8280;BME280;8335;42.646;23.380;2023-04-06T08:04:17;144960.13;;;13.69;39.63
8280;BME280;8335;42.646;23.380;2023-04-06T08:06:44;144980.06;;;13.77;39.98
8280;BME280;8335;42.646;23.380;2023-04-06T08:09:11;145001.28;;;13.86;39.37
8280;BME280;8335;42.646;23.380;2023-04-06T08:11:38;145059.84;;;14.10;39.36
8280;BME280;8335;42.646;23.380;2023-04-06T08:14:06;145132.16;;;14.40;39.36
8280;BME280;8335;42.646;23.380;2023-04-06T08:16:34;145120.91;;;14.35;38.77
8280;BME280;8335;42.646;23.380;2023-04-06T08:19:01;145254.44;;;14.90;38.34
8280;BME280;8335;42.646;23.380;2023-04-06T08:21:28;145328.00;;;15.20;37.78
8280;BME280;8335;42.646;23.380;2023-04-06T08:23:55;145357.97;;;15.32;36.92
8280;BME280;8335;42.646;23.380;2023-04-06T08:26:22;145344.25;;;15.26;36.87
8280;BME280;8335;42.646;23.380;2023-04-06T08:28:48;145320.56;;;15.17;37.30
8280;BME280;8335;42.646;23.380;2023-04-06T08:31:15;145305.56;;;15.10;37.50
8280;BME280;8335;42.646;23.380;2023-04-06T08:33:44;145269.41;;;14.96;36.93
8280;BME280;8335;42.646;23.380;2023-04-06T08:36:12;145390.44;;;15.45;36.93
8280;BME280;8335;42.646;23.380;2023-04-06T08:38:40;145100.97;;;14.27;36.85
8280;BME280;8335;42.646;23.380;2023-04-06T08:41:09;145167.13;;;14.54;37.84
8280;BME280;8335;42.646;23.380;2023-04-06T08:43:42;145081.03;;;14.19;38.27
8280;BME280;8335;42.646;23.380;2023-04-06T08:46:10;145076.06;;;14.17;37.26
8280;BME280;8335;42.646;23.380;2023-04-06T08:48:38;145041.16;;;14.02;38.74
8280;BME280;8335;42.646;23.380;2023-04-06T08:51:07;145012.47;;;13.91;38.23
8280;BME280;8335;42.646;23.380;2023-04-06T08:53:34;145099.72;;;14.26;37.21
8280;BME280;8335;42.646;23.380;2023-04-06T08:56:02;144978.81;;;13.77;36.55
8280;BME280;8335;42.646;23.380;2023-04-06T08:58:35;145173.34;;;14.56;36.89
8280;BME280;8335;42.646;23.380;2023-04-06T09:01:06;145124.69;;;14.37;37.37
8280;BME280;8335;42.646;23.380;2023-04-06T09:03:37;145208.25;;;14.71;36.98
8280;BME280;8335;42.646;23.380;2023-04-06T09:06:06;145266.91;;;14.95;35.80
8280;BME280;8335;42.646;23.380;2023-04-06T09:08:34;145265.66;;;14.94;35.25
8280;BME280;8335;42.646;23.380;2023-04-06T09:11:01;145225.72;;;14.78;35.84
8280;BME280;8335;42.646;23.380;2023-04-06T09:13:28;145100.97;;;14.27;36.59
8280;BME280;8335;42.646;23.380;2023-04-06T09:15:59;145109.72;;;14.30;36.19
8280;BME280;8335;42.646;23.380;2023-04-06T09:18:30;145117.19;;;14.33;36.89
8280;BME280;8335;42.646;23.380;2023-04-06T09:20:58;145197.06;;;14.66;36.69
8280;BME280;8335;42.646;23.380;2023-04-06T09:23:27;145485.31;;;15.84;35.60
8280;BME280;8335;42.646;23.380;2023-04-06T09:26:05;145450.34;;;15.69;34.64
8280;BME280;8335;42.646;23.380;2023-04-06T09:28:42;145490.28;;;15.86;35.49
8280;BME280;8335;42.646;23.380;2023-04-06T09:31:13;145460.38;;;15.74;34.34
8280;BME280;8335;42.646;23.380;2023-04-06T09:33:41;145502.78;;;15.91;34.66
8280;BME280;8335;42.646;23.380;2023-04-06T09:36:09;145475.34;;;15.80;34.16
8280;BME280;8335;42.646;23.380;2023-04-06T09:38:52;145592.66;;;16.28;33.78
8280;BME280;8335;42.646;23.380;2023-04-06T09:41:23;145652.63;;;16.52;33.75
8280;BME280;8335;42.646;23.380;2023-04-06T09:43:51;145558.94;;;16.14;34.18
8280;BME280;8335;42.646;23.380;2023-04-06T09:46:21;145480.31;;;15.82;33.61
8280;BME280;8335;42.646;23.380;2023-04-06T09:48:49;145426.63;;;15.60;34.59
8280;BME280;8335;42.646;23.380;2023-04-06T09:51:18;145392.91;;;15.46;34.86
8280;BME280;8335;42.646;23.380;2023-04-06T09:53:51;145404.16;;;15.51;34.17
8280;BME280;8335;42.646;23.380;2023-04-06T09:56:23;145425.38;;;15.59;33.71
8280;BME280;8335;42.646;23.380;2023-04-06T09:58:57;145469.06;;;15.77;33.81
8280;BME280;8335;42.646;23.380;2023-04-06T10:01:33;145369.22;;;15.36;33.43
8280;BME280;8335;42.646;23.380;2023-04-06T10:04:10;145202.03;;;14.68;35.42
8280;BME280;8335;42.646;23.380;2023-04-06T10:06:39;145062.34;;;14.11;36.41
8280;BME280;8335;42.646;23.380;2023-04-06T10:09:08;145097.25;;;14.25;35.87
8280;BME280;8335;42.646;23.380;2023-04-06T10:11:36;145175.88;;;14.57;35.10
8280;BME280;8335;42.646;23.380;2023-04-06T10:14:03;145190.78;;;14.64;35.73
8280;BME280;8335;42.646;23.380;2023-04-06T10:16:30;145223.22;;;14.77;35.19
8280;BME280;8335;42.646;23.380;2023-04-06T10:19:11;145119.69;;;14.35;35.99
8280;BME280;8335;42.646;23.380;2023-04-06T10:21:40;145184.56;;;14.61;35.35
8280;BME280;8335;42.646;23.380;2023-04-06T10:24:12;145192.03;;;14.64;34.73
8280;BME280;8335;42.646;23.380;2023-04-06T10:26:39;145145.88;;;14.45;35.37
8280;BME280;8335;42.646;23.380;2023-04-06T10:29:06;145179.59;;;14.59;34.86
8280;BME280;8335;42.646;23.380;2023-04-06T10:31:39;145175.88;;;14.57;34.97
8280;BME280;8335;42.646;23.380;2023-04-06T10:34:06;145193.34;;;14.65;34.95
8280;BME280;8335;42.646;23.380;2023-04-06T10:36:34;145157.13;;;14.50;35.06
8280;BME280;8335;42.646;23.380;2023-04-06T10:39:02;145221.97;;;14.76;34.80
8280;BME280;8335;42.646;23.380;2023-04-06T10:41:34;145132.16;;;14.40;35.65
8280;BME280;8335;42.646;23.380;2023-04-06T10:44:02;145173.34;;;14.56;36.34
8280;BME280;8335;42.646;23.380;2023-04-06T10:46:30;145082.28;;;14.19;36.16
8280;BME280;8335;42.646;23.380;2023-04-06T10:48:58;145069.78;;;14.14;35.83
8280;BME280;8335;42.646;23.380;2023-04-06T10:51:27;145084.75;;;14.20;35.65
8280;BME280;8335;42.646;23.380;2023-04-06T10:53:55;145143.41;;;14.44;36.12
8280;BME280;8335;42.646;23.380;2023-04-06T10:56:25;145016.19;;;13.92;36.19
8280;BME280;8335;42.646;23.380;2023-04-06T10:58:55;144845.53;;;13.23;37.37
8280;BME280;8335;42.646;23.380;2023-04-06T11:01:24;144961.38;;;13.70;37.26
8280;BME280;8335;42.646;23.380;2023-04-06T11:03:53;144960.13;;;13.69;37.34
8280;BME280;8335;42.646;23.380;2023-04-06T11:06:20;144916.53;;;13.52;37.12
8280;BME280;8335;42.646;23.380;2023-04-06T11:08:47;144824.25;;;13.14;37.58
8280;BME280;8335;42.646;23.380;2023-04-06T11:11:15;144704.75;;;12.65;37.30
8280;BME280;8335;42.646;23.380;2023-04-06T11:13:44;144571.53;;;12.10;39.46
8280;BME280;8335;42.646;23.380;2023-04-06T11:16:14;144496.81;;;11.80;40.35
8280;BME280;8335;42.646;23.380;2023-04-06T11:18:49;144464.44;;;11.67;41.18
8280;BME280;8335;42.646;23.380;2023-04-06T11:21:16;144445.78;;;11.59;41.23
8280;BME280;8335;42.646;23.380;2023-04-06T11:23:43;144425.91;;;11.51;40.73
8280;BME280;8335;42.646;23.380;2023-04-06T11:26:11;144410.97;;;11.45;42.48
8280;BME280;8335;42.646;23.380;2023-04-06T11:28:42;144381.09;;;11.33;41.21
8280;BME280;8335;42.646;23.380;2023-04-06T11:31:09;144353.72;;;11.21;41.94
8280;BME280;8335;42.646;23.380;2023-04-06T11:33:38;144250.53;;;10.79;42.06
8280;BME280;8335;42.646;23.380;2023-04-06T11:36:06;144215.72;;;10.65;42.83
8280;BME280;8335;42.646;23.380;2023-04-06T11:38:33;144124.94;;;10.28;43.86
8280;BME280;8335;42.646;23.380;2023-04-06T11:41:01;144105.03;;;10.19;44.47
8280;BME280;8335;42.646;23.380;2023-04-06T11:43:29;144108.75;;;10.21;43.36
8280;BME280;8335;42.646;23.380;2023-04-06T11:46:03;144070.22;;;10.05;44.31
8280;BME280;8335;42.646;23.380;2023-04-06T11:48:32;143999.41;;;9.76;44.26
8280;BME280;8335;42.646;23.380;2023-04-06T11:51:01;143875.22;;;9.25;45.87
8280;BME280;8335;42.646;23.380;2023-04-06T11:53:30;143861.56;;;9.20;45.84
8280;BME280;8335;42.646;23.380;2023-04-06T11:55:58;143783.34;;;8.88;46.25
8280;BME280;8335;42.646;23.380;2023-04-06T11:58:25;143756.03;;;8.76;47.65
8280;BME280;8335;42.646;23.380;2023-04-06T12:00:52;143749.84;;;8.74;47.81
8280;BME280;8335;42.646;23.380;2023-04-06T12:03:19;143747.38;;;8.73;48.32
8280;BME280;8335;42.646;23.380;2023-04-06T12:05:46;143716.31;;;8.60;47.15
8280;BME280;8335;42.646;23.380;2023-04-06T12:08:14;143589.72;;;8.08;48.66
8280;BME280;8335;42.646;23.380;2023-04-06T12:10:41;143578.53;;;8.04;49.85
8280;BME280;8335;42.646;23.380;2023-04-06T12:13:08;143542.56;;;7.89;50.20
8280;BME280;8335;42.646;23.380;2023-04-06T12:15:35;143566.13;;;7.98;50.76
8280;BME280;8335;42.646;23.380;2023-04-06T12:18:02;143558.69;;;7.95;51.26
8280;BME280;8335;42.646;23.380;2023-04-06T12:20:29;143582.25;;;8.05;50.24
8280;BME280;8335;42.646;23.380;2023-04-06T12:22:55;143585.97;;;8.07;50.53
8280;BME280;8335;42.646;23.380;2023-04-06T12:25:24;143550.00;;;7.92;50.65
8280;BME280;8335;42.646;23.380;2023-04-06T12:27:51;143506.59;;;7.74;51.78
8280;BME280;8335;42.646;23.380;2023-04-06T12:30:18;143460.72;;;7.55;51.85
8280;BME280;8335;42.646;23.380;2023-04-06T12:32:44;143406.16;;;7.33;52.30
8280;BME280;8335;42.646;23.380;2023-04-06T12:35:11;143417.34;;;7.37;52.74
8280;BME280;8335;42.646;23.380;2023-04-06T12:37:41;143440.88;;;7.47;53.27
8280;BME280;8335;42.646;23.380;2023-04-06T12:40:09;143445.81;;;7.49;53.20
8280;BME280;8335;42.646;23.380;2023-04-06T12:42:39;143505.38;;;7.73;52.67
8280;BME280;8335;42.646;23.380;2023-04-06T12:45:08;143525.22;;;7.82;51.74
8280;BME280;8335;42.646;23.380;2023-04-06T12:47:35;143530.16;;;7.84;50.75
8280;BME280;8335;42.646;23.380;2023-04-06T12:50:03;143514.03;;;7.77;50.79
8280;BME280;8335;42.646;23.380;2023-04-06T12:52:31;143519.03;;;7.79;50.62
8280;BME280;8335;42.646;23.380;2023-04-06T12:55:00;143481.78;;;7.64;51.55
8280;BME280;8335;42.646;23.380;2023-04-06T12:57:27;143402.44;;;7.31;51.72
8280;BME280;8335;42.646;23.380;2023-04-06T12:59:56;143427.22;;;7.41;51.89
8280;BME280;8335;42.646;23.380;2023-04-06T13:02:23;143394.97;;;7.28;53.21
8280;BME280;8335;42.646;23.380;2023-04-06T13:04:51;143339.22;;;7.05;53.47
8280;BME280;8335;42.646;23.380;2023-04-06T13:07:18;143337.97;;;7.05;53.67
8280;BME280;8335;42.646;23.380;2023-04-06T13:09:45;143341.69;;;7.06;54.31